Thursday, January 17, 2019, 8:23 PM EST
Back to Local

KACY, Atlantic City International

Location: Absecon, NJ, United States Lat: 39.467
Local Time: 8:23 PM EST ( 1:23 GMT) Lon: -74.583
Time Zone: US/Eastern Elev: 75 ft

Show me the last for .
Show Decoded

2019-01-17 19:54 METAR KACY 180054Z 00000KT 10SM OVC065 M01/M04 A3028 RMK AO2 SLP252 T10111044 =
2019-01-17 18:54 METAR KACY 172354Z 00000KT 10SM FEW120 M02/M05 A3029 RMK AO2 SLP259 T10221050
                 10006 21022 55004 =
2019-01-17 17:54 METAR KACY 172254Z 02003KT 10SM FEW110 M01/M04 A3029 RMK AO2 SLP257 T10061044 =
2019-01-17 16:54 METAR KACY 172154Z 04004KT 10SM BKN110 00/M04 A3030 RMK AO2 SLP259 T00001044 =
2019-01-17 15:54 METAR KACY 172054Z 10005KT 10SM CLR 00/M05 A3031 RMK AO2 SLP264 T00001050 56017
                 =
2019-01-17 14:54 METAR KACY 171954Z 07008KT 10SM CLR 00/M06 A3031 RMK AO2 SLP264 T00001056 =
2019-01-17 13:54 METAR KACY 171854Z 08005KT 10SM CLR 00/M09 A3034 RMK AO2 SLP274 T00001089 =
2019-01-17 12:54 METAR KACY 171754Z 14005KT 10SM CLR 00/M11 A3036 RMK AO2 SLP281 T00001106 10006
                 21044 58017 =
2019-01-17 11:54 METAR KACY 171654Z 07005KT 10SM CLR 00/M13 A3038 RMK AO2 SLP288 T00001133 =
2019-01-17 10:54 METAR KACY 171554Z 03007KT 10SM CLR 01/M13 A3041 RMK AO2 SLP298 T00061133 =
2019-01-17 09:54 METAR KACY 171454Z 04009KT 10SM CLR M01/M12 A3041 RMK AO2 SLP298 T10111122 51020
                 =
2019-01-17 08:54 METAR KACY 171354Z 02008KT 10SM CLR M02/M09 A3040 RMK AO2 SLP293 T10221089 =
2019-01-17 07:54 METAR KACY 171254Z AUTO 02004KT 10SM CLR M03/M08 A3038 RMK AO2 SLP288 T10331078
                 =
2019-01-17 06:54 METAR KACY 171154Z AUTO 03006KT 10SM CLR M04/M08 A3035 RMK AO2 SLP278 T10391078
                 10000 21044 51015 =
2019-01-17 05:54 METAR KACY 171054Z AUTO 35005KT 10SM CLR M04/M07 A3034 RMK AO2 SLP274 T10441072
                 =
2019-01-17 04:54 METAR KACY 170954Z AUTO 36004KT 10SM CLR M04/M07 A3032 RMK AO2 SLP267 T10441072
                 =
2019-01-17 03:54 METAR KACY 170854Z AUTO 35003KT 10SM CLR M04/M06 A3031 RMK AO2 SLP263 T10391061
                 51013 =
2019-01-17 02:54 METAR KACY 170754Z AUTO 31004KT 10SM CLR M03/M06 A3030 RMK AO2 SLP261 T10331056
                 =
2019-01-17 01:54 METAR KACY 170654Z AUTO 28004KT 10SM CLR M02/M06 A3029 RMK AO2 SLP256 T10221056
                 =
2019-01-17 00:54 METAR KACY 170554Z AUTO 25008KT 10SM SCT047 00/M04 A3027 RMK AO2 SLP250
                 T00001044 10028 20000 51012 =
2019-01-16 23:54 METAR KACY 170454Z AUTO 25008KT 10SM CLR 00/M04 A3026 RMK AO2 SLP248 T00001044
                 400281078 =
2019-01-16 22:54 METAR KACY 170354Z AUTO 25004KT 10SM CLR 01/M04 A3025 RMK AO2 SLP244 T00061044 =
2019-01-16 21:54 METAR KACY 170254Z AUTO 25006KT 10SM CLR 02/M04 A3023 RMK AO2 SLP238 T00171039
                 53014 =
2019-01-16 20:54 METAR KACY 170154Z AUTO 27006KT 10SM CLR 02/M04 A3021 RMK AO2 SLP231 T00221039 =

Support USWX by starting your Amazon purchase here.